createdAt,value
2023-01-27T00:02:02.671Z,17.77
2023-01-27T00:04:30.800Z,12.03
2023-01-27T00:07:01.437Z,12.80
2023-01-27T00:09:33.395Z,13.67
2023-01-27T00:12:19.082Z,11.77
2023-01-27T00:14:47.212Z,10.47
2023-01-27T00:17:15.265Z,10.70
2023-01-27T00:19:45.398Z,14.00
2023-01-27T00:22:30.869Z,14.63
2023-01-27T00:25:00.362Z,9.20
2023-01-27T00:27:28.452Z,13.20
2023-01-27T00:29:58.804Z,13.70
2023-01-27T00:32:45.712Z,16.40
2023-01-27T00:35:16.452Z,16.63
2023-01-27T00:37:45.169Z,13.77
2023-01-27T00:40:17.674Z,13.17
2023-01-27T00:42:48.220Z,14.13
2023-01-27T00:45:35.786Z,17.17
2023-01-27T00:48:07.359Z,15.30
2023-01-27T00:50:35.436Z,16.50
2023-01-27T00:53:06.110Z,15.50
2023-01-27T00:55:38.099Z,15.10
2023-01-27T00:58:07.751Z,16.60
2023-01-27T01:00:37.881Z,16.70
2023-01-27T01:03:06.172Z,15.57
2023-01-27T01:05:37.267Z,14.47
2023-01-27T01:08:07.875Z,16.60
2023-01-27T01:10:40.502Z,17.07
2023-01-27T01:13:11.799Z,14.67
2023-01-27T01:15:40.597Z,18.93
2023-01-27T01:18:11.973Z,21.33
2023-01-27T01:20:44.955Z,16.33
2023-01-27T01:23:14.428Z,17.17
2023-01-27T01:25:44.021Z,15.37
2023-01-27T01:28:12.107Z,20.07
2023-01-27T01:30:42.614Z,20.33
2023-01-27T01:33:13.225Z,16.63
2023-01-27T01:35:43.879Z,15.17
2023-01-27T01:38:14.408Z,15.63
2023-01-27T01:40:46.532Z,18.53
2023-01-27T01:43:16.481Z,14.50
2023-01-27T01:45:52.819Z,16.60
2023-01-27T01:48:34.581Z,17.23
2023-01-27T01:51:08.421Z,13.40
2023-01-27T01:53:41.654Z,17.37
2023-01-27T01:56:16.769Z,14.40
2023-01-27T01:58:49.569Z,14.87
2023-01-27T02:01:20.206Z,14.20
2023-01-27T02:03:51.879Z,13.63
2023-01-27T02:06:20.551Z,13.60
2023-01-27T02:08:51.193Z,11.63
2023-01-27T02:11:20.804Z,11.63
2023-01-27T02:13:48.966Z,13.30
2023-01-27T02:16:17.769Z,13.47
2023-01-27T02:18:45.892Z,10.97
2023-01-27T02:21:14.287Z,17.57
2023-01-27T02:23:55.149Z,11.10
2023-01-27T02:26:30.974Z,11.37
2023-01-27T02:29:01.574Z,16.27
2023-01-27T02:31:29.888Z,12.17
2023-01-27T02:34:03.064Z,13.10
2023-01-27T02:36:36.694Z,12.20
2023-01-27T02:39:06.663Z,14.97
2023-01-27T02:41:40.616Z,10.27
2023-01-27T02:44:10.352Z,14.53
2023-01-27T02:46:39.804Z,11.73
2023-01-27T02:49:11.093Z,13.50
2023-01-27T02:51:40.341Z,9.97
2023-01-27T02:54:09.828Z,10.87
2023-01-27T02:56:39.729Z,9.60
2023-01-27T02:59:08.865Z,9.33
2023-01-27T03:01:40.630Z,9.67
2023-01-27T03:04:11.815Z,10.83
2023-01-27T03:06:40.417Z,9.33
2023-01-27T03:09:10.999Z,10.33
2023-01-27T03:12:00.250Z,9.43
2023-01-27T03:14:45.995Z,9.77
2023-01-27T03:17:34.188Z,8.67
2023-01-27T03:20:04.958Z,8.73
2023-01-27T03:22:33.804Z,9.17
2023-01-27T03:25:04.295Z,8.33
2023-01-27T03:27:36.079Z,6.17
2023-01-27T03:30:22.022Z,8.70
2023-01-27T03:32:59.756Z,8.67
2023-01-27T03:35:49.295Z,6.47
2023-01-27T03:38:39.443Z,7.07
2023-01-27T03:41:24.851Z,6.23
2023-01-27T03:44:14.144Z,6.07
2023-01-27T03:46:42.367Z,5.67
2023-01-27T03:49:12.584Z,5.80
2023-01-27T03:51:40.691Z,7.83
2023-01-27T03:54:10.887Z,6.60
2023-01-27T03:56:38.992Z,7.57
2023-01-27T03:59:08.392Z,7.97
2023-01-27T04:01:36.553Z,6.63
2023-01-27T04:04:22.148Z,5.87
2023-01-27T04:06:57.067Z,5.77
2023-01-27T04:09:29.064Z,5.13
2023-01-27T04:11:59.054Z,6.00
2023-01-27T04:14:32.621Z,5.40
2023-01-27T04:17:02.994Z,5.67
2023-01-27T04:19:31.752Z,5.73
2023-01-27T04:22:03.319Z,6.93
2023-01-27T04:24:31.702Z,8.07
2023-01-27T04:27:04.027Z,8.17
2023-01-27T04:29:36.045Z,9.37
2023-01-27T04:32:08.254Z,7.50
2023-01-27T04:34:40.313Z,8.50
2023-01-27T04:37:09.775Z,7.40
2023-01-27T04:39:37.913Z,8.23
2023-01-27T04:42:08.485Z,9.03
2023-01-27T04:44:37.909Z,7.93
2023-01-27T04:47:06.118Z,7.60
2023-01-27T04:49:34.177Z,8.40
2023-01-27T04:52:02.276Z,8.83
2023-01-27T04:54:30.405Z,7.70
2023-01-27T04:57:00.087Z,7.63
2023-01-27T04:59:28.618Z,8.13
2023-01-27T05:01:59.236Z,8.03
2023-01-27T05:04:27.443Z,6.40
2023-01-27T05:06:55.897Z,11.27
2023-01-27T05:09:26.501Z,6.40
2023-01-27T05:11:54.632Z,7.03
2023-01-27T05:14:23.560Z,6.97
2023-01-27T05:16:51.841Z,6.90
2023-01-27T05:19:21.375Z,8.47
2023-01-27T05:21:49.553Z,7.33
2023-01-27T05:24:17.765Z,6.93
2023-01-27T05:26:48.144Z,7.50
2023-01-27T05:29:18.574Z,9.67
2023-01-27T05:31:48.948Z,7.17
2023-01-27T05:34:17.252Z,7.80
2023-01-27T05:36:46.770Z,6.93
2023-01-27T05:39:16.910Z,8.57
2023-01-27T05:41:45.025Z,6.40
2023-01-27T05:44:13.958Z,7.40
2023-01-27T05:46:43.096Z,7.47
2023-01-27T05:49:13.997Z,6.77
2023-01-27T05:51:42.340Z,8.37
2023-01-27T05:54:11.943Z,6.57
2023-01-27T05:56:40.813Z,6.30
2023-01-27T05:59:09.089Z,7.17
2023-01-27T06:01:37.674Z,7.20
2023-01-27T06:04:07.243Z,6.67
2023-01-27T06:06:37.701Z,10.13
2023-01-27T06:09:05.894Z,9.87
2023-01-27T06:11:35.405Z,8.77
2023-01-27T06:14:03.536Z,8.63
2023-01-27T06:16:31.679Z,6.37
2023-01-27T06:18:59.822Z,7.40
2023-01-27T06:21:30.312Z,7.00
2023-01-27T06:24:00.908Z,7.57
2023-01-27T06:26:29.006Z,6.17
2023-01-27T06:28:58.719Z,7.33
2023-01-27T06:31:27.626Z,6.83
2023-01-27T06:33:58.368Z,8.70
2023-01-27T06:36:29.056Z,7.43
2023-01-27T06:38:57.144Z,8.27
2023-01-27T06:41:27.513Z,8.87
2023-01-27T06:43:55.567Z,7.00
2023-01-27T06:46:25.080Z,9.07
2023-01-27T06:48:53.198Z,7.20
2023-01-27T06:51:21.352Z,7.20
2023-01-27T06:53:49.444Z,9.57
2023-01-27T06:56:19.948Z,9.13
2023-01-27T06:58:48.070Z,9.83
2023-01-27T07:01:16.248Z,7.60
2023-01-27T07:03:46.150Z,8.23
2023-01-27T07:06:15.044Z,7.23
2023-01-27T07:08:45.725Z,8.20
2023-01-27T07:11:13.958Z,6.20
2023-01-27T07:13:42.064Z,7.07
2023-01-27T07:16:12.831Z,6.90
2023-01-27T07:18:40.944Z,8.13
2023-01-27T07:21:12.835Z,7.10
2023-01-27T07:23:40.898Z,7.00
2023-01-27T07:26:23.271Z,7.90
2023-01-27T07:28:53.048Z,6.97
2023-01-27T07:31:21.224Z,9.77
2023-01-27T07:33:49.567Z,7.10
2023-01-27T07:36:19.037Z,9.67
2023-01-27T07:38:51.733Z,7.77
2023-01-27T07:41:19.901Z,6.93
2023-01-27T07:43:52.273Z,7.73
2023-01-27T07:46:27.591Z,8.73
2023-01-27T07:48:58.052Z,7.00
2023-01-27T07:51:30.034Z,8.23
2023-01-27T07:53:58.987Z,7.73
2023-01-27T07:56:28.382Z,7.70
2023-01-27T07:58:56.497Z,8.23
2023-01-27T08:01:24.874Z,7.83
2023-01-27T08:03:52.887Z,8.40
2023-01-27T08:06:20.965Z,8.70
2023-01-27T08:08:50.431Z,7.97
2023-01-27T08:11:18.680Z,6.40
2023-01-27T08:13:46.781Z,8.70
2023-01-27T08:16:17.590Z,7.63
2023-01-27T08:18:45.683Z,9.53
2023-01-27T08:21:16.346Z,8.60
2023-01-27T08:23:44.475Z,8.27
2023-01-27T08:26:16.269Z,7.20
2023-01-27T08:28:46.664Z,7.03
2023-01-27T08:31:16.833Z,7.10
2023-01-27T08:33:46.673Z,7.60
2023-01-27T08:36:19.246Z,8.90
2023-01-27T08:38:49.308Z,7.23
2023-01-27T08:41:21.487Z,8.60
2023-01-27T08:43:49.828Z,7.93
2023-01-27T08:46:18.253Z,7.37
2023-01-27T08:48:46.506Z,6.40
2023-01-27T08:51:15.686Z,7.47
2023-01-27T08:53:44.031Z,7.30
2023-01-27T08:56:14.477Z,7.07
2023-01-27T08:58:45.785Z,6.13
2023-01-27T09:01:13.921Z,6.93
2023-01-27T09:03:42.156Z,6.47
2023-01-27T09:06:14.630Z,6.17
2023-01-27T09:08:43.179Z,6.77
2023-01-27T09:11:13.020Z,6.40
2023-01-27T09:13:41.291Z,6.07
2023-01-27T09:16:11.208Z,6.03
2023-01-27T09:18:42.520Z,5.67
2023-01-27T09:21:13.252Z,5.33
2023-01-27T09:23:41.315Z,5.20
2023-01-27T09:26:09.407Z,5.03
2023-01-27T09:28:37.472Z,5.40
2023-01-27T09:31:09.528Z,4.43
2023-01-27T09:33:41.448Z,5.03
2023-01-27T09:36:14.611Z,4.83
2023-01-27T09:38:46.165Z,4.73
2023-01-27T09:41:38.147Z,5.27
2023-01-27T09:44:31.914Z,5.23
2023-01-27T09:47:24.894Z,4.27
2023-01-27T09:50:19.789Z,3.80
2023-01-27T09:53:28.413Z,4.17
2023-01-27T09:56:02.487Z,3.40
2023-01-27T09:58:45.496Z,4.67
2023-01-27T10:01:26.323Z,3.90
2023-01-27T10:04:15.347Z,3.50
2023-01-27T10:06:58.427Z,3.13
2023-01-27T10:10:18.094Z,3.37
2023-01-27T10:12:59.538Z,4.37
2023-01-27T10:15:43.763Z,2.93
2023-01-27T10:18:27.127Z,4.67
2023-01-27T10:21:05.616Z,3.20
2023-01-27T10:23:52.655Z,3.30
2023-01-27T10:26:28.298Z,3.10
2023-01-27T10:29:03.174Z,2.37
2023-01-27T10:31:37.529Z,2.53
2023-01-27T10:34:19.648Z,2.47
2023-01-27T10:36:57.013Z,2.23
2023-01-27T10:39:36.731Z,2.43
2023-01-27T10:42:13.202Z,2.50
2023-01-27T10:45:02.866Z,3.40
2023-01-27T10:47:43.816Z,3.47
2023-01-27T10:50:15.355Z,3.47
2023-01-27T10:52:48.424Z,2.50
2023-01-27T10:55:22.858Z,2.50
2023-01-27T10:58:00.056Z,1.83
2023-01-27T11:00:57.916Z,1.60
2023-01-27T11:03:29.074Z,1.33
2023-01-27T11:06:04.267Z,1.90
2023-01-27T11:08:36.419Z,1.50
2023-01-27T11:11:27.527Z,0.90
2023-01-27T11:14:04.579Z,1.17
2023-01-27T11:16:37.314Z,1.23
2023-01-27T11:19:17.781Z,0.97
2023-01-27T11:22:06.304Z,6.00
2023-01-27T11:24:46.692Z,1.20
2023-01-27T11:27:28.619Z,1.23
2023-01-27T11:30:02.778Z,1.90
2023-01-27T11:32:45.737Z,1.60
2023-01-27T11:35:17.528Z,1.70
2023-01-27T11:37:50.824Z,2.03
2023-01-27T11:40:25.909Z,2.43
2023-01-27T11:42:59.423Z,2.20
2023-01-27T11:45:29.203Z,2.07
2023-01-27T11:48:01.584Z,1.90
2023-01-27T11:50:34.055Z,1.60
2023-01-27T11:53:13.407Z,2.10
2023-01-27T11:55:48.448Z,2.47
2023-01-27T11:58:24.785Z,2.23
2023-01-27T12:00:59.426Z,3.23
2023-01-27T12:03:43.733Z,2.17
2023-01-27T12:06:17.355Z,2.00
2023-01-27T12:08:46.698Z,2.33
2023-01-27T12:11:21.305Z,1.63
2023-01-27T12:13:53.416Z,1.17
2023-01-27T12:16:21.978Z,3.90
2023-01-27T12:18:55.437Z,0.90
2023-01-27T12:21:36.722Z,1.53
2023-01-27T12:24:18.224Z,1.73
2023-01-27T12:26:48.607Z,1.83
2023-01-27T12:29:22.965Z,2.73
2023-01-27T12:31:54.213Z,1.47
2023-01-27T12:34:29.543Z,1.20
2023-01-27T12:36:58.685Z,1.00
2023-01-27T12:39:39.553Z,2.03
2023-01-27T12:42:34.995Z,1.90
2023-01-27T12:45:25.017Z,2.17
2023-01-27T12:47:59.360Z,1.20
2023-01-27T12:50:29.296Z,1.37
2023-01-27T12:53:12.788Z,1.97
2023-01-27T12:55:47.124Z,1.63
2023-01-27T12:58:37.247Z,1.37
2023-01-27T13:01:25.867Z,1.97
2023-01-27T13:03:57.652Z,1.40
2023-01-27T13:06:35.553Z,1.13
2023-01-27T13:09:04.530Z,1.53
2023-01-27T13:11:38.301Z,1.60
2023-01-27T13:14:10.339Z,1.80
2023-01-27T13:16:39.981Z,1.03
2023-01-27T13:19:18.192Z,0.97
2023-01-27T13:21:50.089Z,0.53
2023-01-27T13:24:26.672Z,1.60
2023-01-27T13:26:57.646Z,0.70
2023-01-27T13:29:30.462Z,1.77
2023-01-27T13:32:05.692Z,0.70
2023-01-27T13:34:39.928Z,0.67
2023-01-27T13:37:13.245Z,1.57
2023-01-27T13:39:54.958Z,0.87
2023-01-27T13:42:27.338Z,0.97
2023-01-27T13:45:02.298Z,0.90
2023-01-27T13:47:38.196Z,0.93
2023-01-27T13:50:17.206Z,2.93
2023-01-27T13:52:50.917Z,2.70
2023-01-27T13:55:27.754Z,2.30
2023-01-27T13:58:05.249Z,1.40
2023-01-27T14:00:39.337Z,2.87
2023-01-27T14:03:46.669Z,2.67
2023-01-27T14:06:28.145Z,2.13
2023-01-27T14:09:04.768Z,2.30
2023-01-27T14:11:41.508Z,1.90
2023-01-27T14:14:26.555Z,2.70
2023-01-27T14:17:10.168Z,2.90
2023-01-27T14:19:49.893Z,2.40
2023-01-27T14:22:28.430Z,1.83
2023-01-27T14:25:09.481Z,2.10
2023-01-27T14:27:43.872Z,1.60
2023-01-27T14:30:19.596Z,1.43
2023-01-27T14:32:53.484Z,2.00
2023-01-27T14:35:42.937Z,1.33
2023-01-27T14:38:21.781Z,1.10
2023-01-27T14:41:07.440Z,1.73
2023-01-27T14:43:42.731Z,1.00
2023-01-27T14:46:20.808Z,1.10
2023-01-27T14:48:59.064Z,1.13
2023-01-27T14:51:36.678Z,1.33
2023-01-27T14:54:26.343Z,1.83
2023-01-27T14:57:15.328Z,1.43
2023-01-27T14:59:51.949Z,1.70
2023-01-27T15:02:32.168Z,1.13
2023-01-27T15:05:10.782Z,1.10
2023-01-27T15:07:50.591Z,1.07
2023-01-27T15:10:25.516Z,0.80
2023-01-27T15:13:24.752Z,1.23
2023-01-27T15:16:16.197Z,1.10
2023-01-27T15:19:14.342Z,1.53
2023-01-27T15:22:04.640Z,1.77
2023-01-27T15:24:54.191Z,0.87
2023-01-27T15:27:23.453Z,1.20
2023-01-27T15:29:52.166Z,1.63
2023-01-27T15:32:37.311Z,1.50
2023-01-27T15:35:33.500Z,1.23
2023-01-27T15:38:20.777Z,0.80
2023-01-27T15:41:07.469Z,1.33
2023-01-27T15:43:40.349Z,1.73
2023-01-27T15:46:28.059Z,1.27
2023-01-27T15:48:57.327Z,2.80
2023-01-27T15:51:26.091Z,1.10
2023-01-27T15:53:57.314Z,3.50
2023-01-27T15:59:25.084Z,3.00
2023-01-27T16:02:03.945Z,1.43
2023-01-27T16:04:33.430Z,1.30
2023-01-27T16:07:04.753Z,1.37
2023-01-27T16:09:39.358Z,1.17
2023-01-27T16:12:30.174Z,1.30
2023-01-27T16:15:36.053Z,2.40
2023-01-27T16:18:26.684Z,1.80
2023-01-27T16:21:01.042Z,4.13
2023-01-27T16:23:43.974Z,3.63
2023-01-27T16:26:25.993Z,2.87
2023-01-27T16:29:04.907Z,3.90
2023-01-27T16:31:34.460Z,2.97
2023-01-27T16:34:06.845Z,2.20
2023-01-27T16:36:36.809Z,1.93
2023-01-27T16:39:24.725Z,2.00
2023-01-27T16:41:56.373Z,2.50
2023-01-27T16:44:29.373Z,2.73
2023-01-27T16:47:16.558Z,1.70
2023-01-27T16:49:49.525Z,2.20
2023-01-27T16:52:35.973Z,2.33
2023-01-27T16:55:21.103Z,2.90
2023-01-27T16:57:53.416Z,2.87
2023-01-27T17:00:27.406Z,2.60
2023-01-27T17:03:00.567Z,3.77
2023-01-27T17:05:31.304Z,2.43
2023-01-27T17:08:04.815Z,3.70
2023-01-27T17:10:34.995Z,2.67
2023-01-27T17:13:03.691Z,2.50
2023-01-27T17:15:37.607Z,2.77
2023-01-27T17:18:12.253Z,2.90
2023-01-27T17:20:47.059Z,3.23
2023-01-27T17:23:23.392Z,4.37
2023-01-27T17:25:52.067Z,2.70
2023-01-27T17:28:26.432Z,3.40
2023-01-27T17:31:06.090Z,3.50
2023-01-27T17:33:38.222Z,4.33
2023-01-27T17:36:11.414Z,3.47
2023-01-27T17:38:46.359Z,3.77
2023-01-27T17:41:46.439Z,3.87
2023-01-27T17:44:15.892Z,4.83
2023-01-27T17:46:44.067Z,2.77
2023-01-27T17:49:17.586Z,2.80
2023-01-27T17:51:48.746Z,3.20
2023-01-27T17:54:22.560Z,4.73
2023-01-27T17:56:53.216Z,7.43
2023-01-27T17:59:26.739Z,25.93
2023-01-27T18:01:56.392Z,25.90
2023-01-27T18:04:27.028Z,15.30
2023-01-27T18:06:55.664Z,16.33
2023-01-27T18:09:28.034Z,7.53
2023-01-27T18:11:59.209Z,6.33
2023-01-27T18:14:30.535Z,5.47
2023-01-27T18:17:03.894Z,4.50
2023-01-27T18:19:34.565Z,4.37
2023-01-27T18:22:04.425Z,6.30
2023-01-27T18:24:33.270Z,4.63
2023-01-27T18:27:01.448Z,5.13
2023-01-27T18:29:37.384Z,5.03
2023-01-27T18:32:15.588Z,6.10
2023-01-27T18:34:49.519Z,6.37
2023-01-27T18:37:27.531Z,8.97
2023-01-27T18:39:56.918Z,8.60
2023-01-27T18:42:29.793Z,10.20
2023-01-27T18:45:00.426Z,8.13
2023-01-27T18:47:34.525Z,11.50
2023-01-27T18:50:14.818Z,11.33
2023-01-27T18:52:43.294Z,8.90
2023-01-27T18:55:17.226Z,9.23
2023-01-27T18:57:46.364Z,7.53
2023-01-27T19:00:16.947Z,13.30
2023-01-27T19:02:47.432Z,11.80
2023-01-27T19:05:22.253Z,7.13
2023-01-27T19:07:50.674Z,6.30
2023-01-27T19:10:23.884Z,7.67
2023-01-27T19:12:52.193Z,9.40
2023-01-27T19:15:23.901Z,10.50
2023-01-27T19:17:54.004Z,5.00
2023-01-27T19:20:27.427Z,6.00
2023-01-27T19:22:56.827Z,6.07
2023-01-27T19:25:30.917Z,5.83
2023-01-27T19:28:03.764Z,5.10
2023-01-27T19:30:36.149Z,3.90
2023-01-27T19:33:18.278Z,4.20
2023-01-27T19:35:54.684Z,4.70
2023-01-27T19:38:23.937Z,5.73
2023-01-27T19:40:52.112Z,4.73
2023-01-27T19:43:20.597Z,4.93
2023-01-27T19:45:50.887Z,4.53
2023-01-27T19:48:23.104Z,5.37
2023-01-27T19:50:53.406Z,5.60
2023-01-27T19:53:21.722Z,5.47
2023-01-27T19:55:50.351Z,6.10
2023-01-27T19:58:24.678Z,4.93
2023-01-27T20:00:56.886Z,4.60
2023-01-27T20:03:25.093Z,4.00
2023-01-27T20:05:56.946Z,3.30
2023-01-27T20:08:25.226Z,8.13
2023-01-27T20:10:55.680Z,11.57
2023-01-27T20:13:23.834Z,8.37
2023-01-27T20:15:52.419Z,10.33
2023-01-27T20:18:22.886Z,4.50
2023-01-27T20:20:52.010Z,8.27
2023-01-27T20:23:24.072Z,8.00
2023-01-27T20:25:56.907Z,8.57
2023-01-27T20:28:27.001Z,6.57
2023-01-27T20:30:57.474Z,6.90
2023-01-27T20:33:25.653Z,9.10
2023-01-27T20:35:56.049Z,5.87
2023-01-27T20:38:28.181Z,7.40
2023-01-27T20:40:56.283Z,13.33
2023-01-27T20:43:34.715Z,7.30
2023-01-27T20:46:06.908Z,9.37
2023-01-27T20:48:35.200Z,7.67
2023-01-27T20:51:07.434Z,7.87
2023-01-27T20:53:43.135Z,7.03
2023-01-27T20:56:11.243Z,7.67
2023-01-27T20:58:41.598Z,7.53
2023-01-27T21:01:13.994Z,7.27
2023-01-27T21:03:42.785Z,6.73
2023-01-27T21:06:15.605Z,8.57
2023-01-27T21:08:49.288Z,7.20
2023-01-27T21:11:20.493Z,5.90
2023-01-27T21:13:53.319Z,6.77
2023-01-27T21:16:21.644Z,7.50
2023-01-27T21:18:50.023Z,6.60
2023-01-27T21:21:23.799Z,7.00
2023-01-27T21:23:55.952Z,7.60
2023-01-27T21:26:24.902Z,7.17
2023-01-27T21:28:53.539Z,7.37
2023-01-27T21:31:24.237Z,8.23
2023-01-27T21:33:54.684Z,8.20
2023-01-27T21:36:23.535Z,8.07
2023-01-27T21:38:53.776Z,8.93
2023-01-27T21:41:41.627Z,8.50
2023-01-27T21:44:35.216Z,8.83
2023-01-27T21:47:04.247Z,8.07
2023-01-27T21:49:56.346Z,8.87
2023-01-27T21:52:31.651Z,8.77
2023-01-27T21:55:00.177Z,9.47
2023-01-27T21:57:29.942Z,8.47
2023-01-27T21:59:58.362Z,12.03
2023-01-27T22:02:27.163Z,8.13
2023-01-27T22:04:57.507Z,10.33
2023-01-27T22:07:27.085Z,9.50
2023-01-27T22:09:57.515Z,9.20
2023-01-27T22:12:25.662Z,9.70
2023-01-27T22:14:55.163Z,10.83
2023-01-27T22:17:23.295Z,9.50
2023-01-27T22:19:51.388Z,9.20
2023-01-27T22:22:19.557Z,9.63
2023-01-27T22:24:47.677Z,10.20
2023-01-27T22:27:17.976Z,9.70
2023-01-27T22:29:46.114Z,9.90
2023-01-27T22:32:17.784Z,9.93
2023-01-27T22:34:47.744Z,9.93
2023-01-27T22:37:18.430Z,10.00
2023-01-27T22:39:46.561Z,9.20
2023-01-27T22:42:14.698Z,9.80
2023-01-27T22:44:42.783Z,10.53
2023-01-27T22:47:11.112Z,11.50
2023-01-27T22:49:40.623Z,8.57
2023-01-27T22:52:08.817Z,11.77
2023-01-27T22:54:37.027Z,8.60
2023-01-27T22:57:05.177Z,9.53
2023-01-27T22:59:35.673Z,10.07
2023-01-27T23:02:03.906Z,9.73
2023-01-27T23:04:34.541Z,11.30
2023-01-27T23:07:04.011Z,8.60
2023-01-27T23:09:32.737Z,9.57
2023-01-27T23:12:00.996Z,9.20
2023-01-27T23:14:29.045Z,9.27
2023-01-27T23:16:58.601Z,8.53
2023-01-27T23:19:26.779Z,9.00
2023-01-27T23:21:55.351Z,9.13
2023-01-27T23:24:24.906Z,8.50
2023-01-27T23:26:53.147Z,8.30
2023-01-27T23:29:25.033Z,8.23
2023-01-27T23:31:53.540Z,9.03
2023-01-27T23:34:21.915Z,9.87
2023-01-27T23:36:50.108Z,7.50
2023-01-27T23:39:18.420Z,9.50
2023-01-27T23:41:50.234Z,9.77
2023-01-27T23:44:18.622Z,8.47
2023-01-27T23:46:46.920Z,8.63
2023-01-27T23:49:15.363Z,8.17
2023-01-27T23:51:43.589Z,8.20
2023-01-27T23:54:14.336Z,7.70
2023-01-27T23:56:42.456Z,8.07
2023-01-27T23:59:14.435Z,7.33
